Time,TemperatureF,DewpointF,PressureIn,WindDirection,WindDirectionDegrees,WindSpeedMPH,WindSpeedGustMPH,Humidity,HourlyPrecipIn,Conditions,Clouds,dailyrainin,SoftwareType,DateUTC
2013-01-03 00:09:00,71.0,67.9,30.07,WSW,258,1.0,1.0,90,0.00,,,0.00,Wunderground v.1.15,2013-01-03 05:09:00,
2013-01-03 00:19:00,71.1,68.0,30.07,WSW,250,1.0,1.0,90,0.00,,,0.00,Wunderground v.1.15,2013-01-03 05:19:00,
2013-01-03 00:29:00,71.1,68.0,30.07,WSW,255,1.0,1.0,90,0.00,,,0.00,Wunderground v.1.15,2013-01-03 05:29:00,
2013-01-03 00:39:00,71.1,68.0,30.07,SW,221,1.0,6.0,90,0.00,,,0.00,Wunderground v.1.15,2013-01-03 05:39:00,
2013-01-03 00:49:00,71.2,68.1,30.07,West,277,2.0,2.0,90,0.00,,,0.01,Wunderground v.1.15,2013-01-03 05:49:00,
2013-01-03 00:59:00,70.8,68.0,30.07,West,274,1.0,1.0,91,0.00,,,0.01,Wunderground v.1.15,2013-01-03 05:59:00,
2013-01-03 01:09:00,70.5,67.7,30.07,WSW,252,1.0,1.0,91,0.00,,,0.01,Wunderground v.1.15,2013-01-03 06:09:00,
2013-01-03 01:19:00,70.3,67.9,30.08,SW,231,1.0,1.0,92,0.00,,,0.02,Wunderground v.1.15,2013-01-03 06:19:00,
2013-01-03 01:29:00,70.0,67.6,30.08,West,276,0.0,0.0,92,0.06,,,0.03,Wunderground v.1.15,2013-01-03 06:29:00,
2013-01-03 01:39:00,69.9,67.5,30.07,West,276,0.0,0.0,92,0.04,,,0.03,Wunderground v.1.15,2013-01-03 06:39:00,
2013-01-03 01:49:00,69.7,67.6,30.07,West,259,0.0,1.0,93,0.00,,,0.03,Wunderground v.1.15,2013-01-03 06:49:00,
2013-01-03 01:59:00,69.6,67.5,30.07,WNW,282,1.0,2.0,93,0.00,,,0.03,Wunderground v.1.15,2013-01-03 06:59:00,
2013-01-03 02:09:00,69.3,67.2,30.07,NW,321,2.0,2.0,93,0.00,,,0.03,Wunderground v.1.15,2013-01-03 07:09:00,
2013-01-03 02:19:00,69.0,66.9,30.06,NW,320,2.0,2.0,93,0.00,,,0.03,Wunderground v.1.15,2013-01-03 07:19:00,
2013-01-03 02:29:00,69.0,66.9,30.06,NW,318,1.0,2.0,93,0.00,,,0.03,Wunderground v.1.15,2013-01-03 07:29:00,
2013-01-03 02:39:00,68.9,66.8,30.06,NW,314,2.0,3.0,93,0.00,,,0.03,Wunderground v.1.15,2013-01-03 07:39:00,
2013-01-03 02:49:00,68.8,66.7,30.06,NW,307,2.0,2.0,93,0.00,,,0.03,Wunderground v.1.15,2013-01-03 07:49:00,
2013-01-03 02:59:00,68.8,66.7,30.06,NW,307,3.0,3.0,93,0.00,,,0.03,Wunderground v.1.15,2013-01-03 07:59:00,
2013-01-03 03:09:00,68.7,66.6,30.06,WNW,301,2.0,2.0,93,0.00,,,0.03,Wunderground v.1.15,2013-01-03 08:09:00,
2013-01-03 03:19:00,68.6,66.5,30.06,WNW,288,2.0,2.0,93,0.00,,,0.03,Wunderground v.1.15,2013-01-03 08:19:00,
2013-01-03 03:29:00,68.6,66.5,30.06,NW,318,3.0,3.0,93,0.00,,,0.03,Wunderground v.1.15,2013-01-03 08:29:00,
2013-01-03 03:39:00,68.6,66.5,30.06,WNW,294,2.0,2.0,93,0.00,,,0.03,Wunderground v.1.15,2013-01-03 08:39:00,
2013-01-03 03:49:00,68.4,66.3,30.06,WNW,301,2.0,2.0,93,0.00,,,0.03,Wunderground v.1.15,2013-01-03 08:49:00,
2013-01-03 03:59:00,68.3,66.2,30.06,NW,304,2.0,2.0,93,0.00,,,0.03,Wunderground v.1.15,2013-01-03 08:59:00,
2013-01-03 04:09:00,68.1,66.0,30.06,NW,314,2.0,2.0,93,0.00,,,0.03,Wunderground v.1.15,2013-01-03 09:09:00,
2013-01-03 04:19:00,68.0,65.9,30.06,NW,304,1.0,1.0,93,0.00,,,0.03,Wunderground v.1.15,2013-01-03 09:19:00,
2013-01-03 04:29:00,67.7,65.6,30.06,West,267,0.0,0.0,93,0.00,,,0.03,Wunderground v.1.15,2013-01-03 09:29:00,
2013-01-03 04:39:00,67.5,65.4,30.06,West,263,1.0,1.0,93,0.00,,,0.03,Wunderground v.1.15,2013-01-03 09:39:00,
2013-01-03 04:49:00,67.3,65.5,30.06,WNW,302,1.0,1.0,94,0.00,,,0.03,Wunderground v.1.15,2013-01-03 09:49:00,
2013-01-03 04:59:00,67.2,65.4,30.06,WNW,301,2.0,3.0,94,0.00,,,0.03,Wunderground v.1.15,2013-01-03 09:59:00,
2013-01-03 05:09:00,67.2,65.4,30.06,WNW,294,3.0,3.0,94,0.00,,,0.03,Wunderground v.1.15,2013-01-03 10:09:00,
2013-01-03 05:19:00,67.2,65.4,30.06,WNW,285,2.0,2.0,94,0.00,,,0.03,Wunderground v.1.15,2013-01-03 10:19:00,
2013-01-03 05:29:00,67.1,65.3,30.06,ENE,65,0.0,0.0,94,0.00,,,0.03,Wunderground v.1.15,2013-01-03 10:29:00,
2013-01-03 05:39:00,67.1,65.3,30.07,East,86,0.0,0.0,94,0.00,,,0.03,Wunderground v.1.15,2013-01-03 10:39:00,
2013-01-03 05:49:00,66.9,65.1,30.07,East,86,0.0,0.0,94,0.00,,,0.03,Wunderground v.1.15,2013-01-03 10:49:00,
2013-01-03 05:59:00,66.9,65.1,30.08,East,86,0.0,0.0,94,0.00,,,0.03,Wunderground v.1.15,2013-01-03 10:59:00,
2013-01-03 06:09:00,66.7,64.9,30.08,East,86,0.0,0.0,94,0.00,,,0.03,Wunderground v.1.15,2013-01-03 11:09:00,
2013-01-03 06:19:00,66.9,65.1,30.08,NNE,22,0.0,0.0,94,0.00,,,0.03,Wunderground v.1.15,2013-01-03 11:19:00,
2013-01-03 06:29:00,66.9,65.1,30.09,NNE,22,0.0,0.0,94,0.00,,,0.03,Wunderground v.1.15,2013-01-03 11:29:00,
2013-01-03 06:39:00,67.1,65.6,30.09,WNW,293,0.0,0.0,95,0.00,,,0.03,Wunderground v.1.15,2013-01-03 11:39:00,
2013-01-03 06:49:00,67.1,65.6,30.09,WNW,292,0.0,0.0,95,0.00,,,0.03,Wunderground v.1.15,2013-01-03 11:49:00,
2013-01-03 06:59:00,67.1,65.6,30.09,NNE,27,0.0,0.0,95,0.00,,,0.03,Wunderground v.1.15,2013-01-03 11:59:00,
2013-01-03 07:09:00,67.0,65.5,30.09,NNE,27,0.0,0.0,95,0.00,,,0.03,Wunderground v.1.15,2013-01-03 12:09:00,
2013-01-03 07:19:00,66.9,65.4,30.09,NNE,27,0.0,0.0,95,0.00,,,0.03,Wunderground v.1.15,2013-01-03 12:19:00,
2013-01-03 07:29:00,67.0,65.5,30.10,East,81,0.0,0.0,95,0.00,,,0.03,Wunderground v.1.15,2013-01-03 12:29:00,
2013-01-03 07:39:00,67.1,65.6,30.10,East,81,0.0,0.0,95,0.00,,,0.03,Wunderground v.1.15,2013-01-03 12:39:00,
2013-01-03 07:49:00,67.3,65.8,30.10,East,81,0.0,0.0,95,0.00,,,0.03,Wunderground v.1.15,2013-01-03 12:49:00,
2013-01-03 07:59:00,67.5,66.0,30.10,ENE,72,0.0,0.0,95,0.00,,,0.03,Wunderground v.1.15,2013-01-03 12:59:00,
2013-01-03 08:09:00,67.7,66.2,30.11,ENE,72,0.0,0.0,95,0.00,,,0.03,Wunderground v.1.15,2013-01-03 13:09:00,
2013-01-03 08:19:00,68.1,66.6,30.11,ENE,72,0.0,0.0,95,0.00,,,0.03,Wunderground v.1.15,2013-01-03 13:19:00,
2013-01-03 08:29:00,68.6,67.1,30.11,ENE,72,0.0,0.0,95,0.00,,,0.03,Wunderground v.1.15,2013-01-03 13:29:00,
2013-01-03 08:39:00,68.8,67.0,30.12,ENE,72,0.0,0.0,94,0.00,,,0.03,Wunderground v.1.15,2013-01-03 13:39:00,
2013-01-03 08:49:00,69.6,67.8,30.12,WNW,284,0.0,0.0,94,0.00,,,0.03,Wunderground v.1.15,2013-01-03 13:49:00,
2013-01-03 08:59:00,70.3,67.9,30.12,North,9,0.0,0.0,92,0.00,,,0.03,Wunderground v.1.15,2013-01-03 13:59:00,
2013-01-03 09:09:00,71.9,69.1,30.12,SE,141,0.0,0.0,91,0.00,,,0.03,Wunderground v.1.15,2013-01-03 14:09:00,
2013-01-03 09:19:00,73.4,70.0,30.13,South,176,0.0,0.0,89,0.00,,,0.03,Wunderground v.1.15,2013-01-03 14:19:00,
2013-01-03 09:29:00,74.4,69.9,30.13,NNW,328,0.0,0.0,86,0.00,,,0.03,Wunderground v.1.15,2013-01-03 14:29:00,
2013-01-03 09:39:00,74.6,69.4,30.13,SSE,160,1.0,2.0,84,0.00,,,0.03,Wunderground v.1.15,2013-01-03 14:39:00,
2013-01-03 09:49:00,75.3,69.4,30.13,East,100,1.0,2.0,82,0.00,,,0.03,Wunderground v.1.15,2013-01-03 14:49:00,
2013-01-03 09:59:00,76.1,70.2,30.13,East,81,1.0,1.0,82,0.00,,,0.03,Wunderground v.1.15,2013-01-03 14:59:00,
2013-01-03 10:09:00,75.9,69.6,30.13,SE,129,2.0,2.0,81,0.00,,,0.03,Wunderground v.1.15,2013-01-03 15:09:00,
2013-01-03 10:19:00,76.3,69.7,30.13,ENE,76,3.0,3.0,80,0.00,,,0.03,Wunderground v.1.15,2013-01-03 15:19:00,
2013-01-03 10:29:00,76.5,69.5,30.13,ESE,110,2.0,2.0,79,0.00,,,0.03,Wunderground v.1.15,2013-01-03 15:29:00,
2013-01-03 10:39:00,76.9,69.9,30.13,East,81,3.0,3.0,79,0.00,,,0.03,Wunderground v.1.15,2013-01-03 15:39:00,
2013-01-03 10:49:00,77.3,69.5,30.12,SE,135,3.0,5.0,77,0.00,,,0.03,Wunderground v.1.15,2013-01-03 15:49:00,
2013-01-03 10:58:00,78.0,70.2,30.12,ESE,106,3.0,5.0,77,0.00,,,0.03,Wunderground v.1.15,2013-01-03 15:58:00,
2013-01-03 11:09:00,77.8,69.6,30.12,South,182,4.0,7.0,76,0.00,,,0.03,Wunderground v.1.15,2013-01-03 16:09:00,
2013-01-03 11:19:00,78.3,69.7,30.11,ESE,111,4.0,8.0,75,0.00,,,0.03,Wunderground v.1.15,2013-01-03 16:19:00,
2013-01-03 11:29:00,78.5,71.1,30.11,SSW,198,4.0,4.0,78,0.00,,,0.03,Wunderground v.1.15,2013-01-03 16:29:00,
2013-01-03 11:39:00,78.7,70.1,30.11,SE,146,4.0,5.0,75,0.00,,,0.03,Wunderground v.1.15,2013-01-03 16:39:00,
2013-01-03 11:49:00,78.4,70.2,30.10,SE,138,5.0,5.0,76,0.00,,,0.03,Wunderground v.1.15,2013-01-03 16:49:00,
2013-01-03 11:59:00,78.7,68.9,30.10,SE,134,5.0,5.0,72,0.00,,,0.03,Wunderground v.1.15,2013-01-03 16:59:00,
2013-01-03 12:08:00,79.1,69.3,30.09,SSE,158,5.0,11.0,72,0.00,,,0.03,Wunderground v.1.15,2013-01-03 17:08:00,
2013-01-03 12:19:00,79.0,69.6,30.08,SE,141,6.0,6.0,73,0.00,,,0.03,Wunderground v.1.15,2013-01-03 17:19:00,
2013-01-03 12:29:00,78.6,68.8,30.08,South,174,4.0,7.0,72,0.00,,,0.03,Wunderground v.1.15,2013-01-03 17:29:00,
2013-01-03 12:38:00,77.2,68.3,30.08,SE,135,6.0,6.0,74,0.00,,,0.03,Wunderground v.1.15,2013-01-03 17:38:00,
2013-01-03 12:49:00,77.2,68.3,30.07,SSW,212,5.0,5.0,74,0.00,,,0.03,Wunderground v.1.15,2013-01-03 17:49:00,
2013-01-03 12:59:00,78.6,68.0,30.07,SSE,155,6.0,6.0,70,0.00,,,0.03,Wunderground v.1.15,2013-01-03 17:59:00,
2013-01-03 13:09:00,78.9,68.3,30.06,SSE,167,5.0,5.0,70,0.00,,,0.03,Wunderground v.1.15,2013-01-03 18:09:00,
2013-01-03 13:19:00,79.1,68.9,30.06,SE,141,5.0,9.0,71,0.00,,,0.03,Wunderground v.1.15,2013-01-03 18:19:00,
2013-01-03 13:29:00,79.1,68.9,30.05,South,173,6.0,6.0,71,0.00,,,0.03,Wunderground v.1.15,2013-01-03 18:29:00,
2013-01-03 13:39:00,78.2,68.4,30.05,South,172,5.0,5.0,72,0.00,,,0.03,Wunderground v.1.15,2013-01-03 18:39:00,
2013-01-03 13:48:00,77.9,68.9,30.05,East,99,5.0,5.0,74,0.00,,,0.03,Wunderground v.1.15,2013-01-03 18:48:00,
2013-01-03 13:59:00,78.2,68.8,30.05,West,278,7.0,7.0,73,0.00,,,0.03,Wunderground v.1.15,2013-01-03 18:59:00,
2013-01-03 14:09:00,78.4,69.4,30.05,SSE,167,6.0,6.0,74,0.00,,,0.03,Wunderground v.1.15,2013-01-03 19:09:00,
2013-01-03 14:18:00,78.5,69.1,30.05,SE,140,6.0,6.0,73,0.00,,,0.03,Wunderground v.1.15,2013-01-03 19:18:00,
2013-01-03 14:59:00,78.7,68.1,30.05,South,184,7.0,9.0,70,0.00,,,0.03,Wunderground v.1.15,2013-01-03 19:59:00,
2013-01-03 15:09:00,78.5,67.9,30.05,South,188,7.0,7.0,70,0.00,,,0.03,Wunderground v.1.15,2013-01-03 20:09:00,
2013-01-03 15:19:00,78.3,68.1,30.05,SSW,212,8.0,8.0,71,0.00,,,0.03,Wunderground v.1.15,2013-01-03 20:19:00,
2013-01-03 15:29:00,78.5,67.9,30.05,SE,131,6.0,6.0,70,0.00,,,0.03,Wunderground v.1.15,2013-01-03 20:29:00,
2013-01-03 15:38:00,78.8,68.2,30.06,SSE,158,6.0,8.0,70,0.00,,,0.03,Wunderground v.1.15,2013-01-03 20:38:00,
2013-01-03 15:49:00,78.7,68.1,30.06,SSE,158,7.0,7.0,70,0.00,,,0.03,Wunderground v.1.15,2013-01-03 20:49:00,
2013-01-03 15:59:00,79.0,68.4,30.06,SSW,194,5.0,6.0,70,0.00,,,0.03,Wunderground v.1.15,2013-01-03 20:59:00,
2013-01-03 16:09:00,78.5,67.9,30.06,East,86,7.0,7.0,70,0.00,,,0.03,Wunderground v.1.15,2013-01-03 21:09:00,
2013-01-03 16:19:00,78.4,68.2,30.06,South,179,6.0,6.0,71,0.00,,,0.03,Wunderground v.1.15,2013-01-03 21:19:00,
2013-01-03 16:29:00,78.4,68.6,30.07,ESE,117,5.0,5.0,72,0.00,,,0.03,Wunderground v.1.15,2013-01-03 21:29:00,
2013-01-03 16:39:00,78.2,68.4,30.07,West,271,6.0,6.0,72,0.00,,,0.03,Wunderground v.1.15,2013-01-03 21:39:00,
2013-01-03 16:49:00,78.0,68.2,30.07,SSE,156,5.0,5.0,72,0.00,,,0.03,Wunderground v.1.15,2013-01-03 21:49:00,
2013-01-03 16:59:00,77.8,68.4,30.07,South,180,4.0,8.0,73,0.00,,,0.03,Wunderground v.1.15,2013-01-03 21:59:00,
2013-01-03 17:09:00,77.3,68.4,30.07,SE,146,6.0,6.0,74,0.00,,,0.03,Wunderground v.1.15,2013-01-03 22:09:00,
2013-01-03 17:19:00,76.7,68.2,30.08,SSE,167,6.0,6.0,75,0.00,,,0.03,Wunderground v.1.15,2013-01-03 22:19:00,
2013-01-03 17:29:00,76.4,68.3,30.08,SSE,156,4.0,4.0,76,0.00,,,0.03,Wunderground v.1.15,2013-01-03 22:29:00,
2013-01-03 17:39:00,76.0,67.9,30.08,SSE,162,3.0,5.0,76,0.00,,,0.03,Wunderground v.1.15,2013-01-03 22:39:00,
2013-01-03 17:48:00,75.7,68.0,30.08,South,186,4.0,4.0,77,0.00,,,0.03,Wunderground v.1.15,2013-01-03 22:48:00,
2013-01-03 17:59:00,75.6,68.3,30.09,SW,216,4.0,4.0,78,0.00,,,0.03,Wunderground v.1.15,2013-01-03 22:59:00,
2013-01-03 18:09:00,75.4,68.4,30.09,SE,136,4.0,4.0,79,0.00,,,0.03,Wunderground v.1.15,2013-01-03 23:09:00,
2013-01-03 18:19:00,75.3,68.3,30.09,SSE,167,4.0,4.0,79,0.00,,,0.03,Wunderground v.1.15,2013-01-03 23:19:00,
2013-01-03 18:28:00,75.1,68.5,30.10,South,169,3.0,3.0,80,0.00,,,0.03,Wunderground v.1.15,2013-01-03 23:28:00,
2013-01-03 18:39:00,75.1,68.5,30.10,SE,146,5.0,5.0,80,0.00,,,0.03,Wunderground v.1.15,2013-01-03 23:39:00,
2013-01-03 18:49:00,74.9,68.7,30.10,SSE,155,5.0,5.0,81,0.00,,,0.03,Wunderground v.1.15,2013-01-03 23:49:00,
2013-01-03 18:58:00,74.9,68.7,30.10,South,188,4.0,6.0,81,0.00,,,0.03,Wunderground v.1.15,2013-01-03 23:58:00,
2013-01-03 19:09:00,74.8,68.9,30.10,SSE,166,4.0,6.0,82,0.00,,,0.03,Wunderground v.1.15,2013-01-04 00:09:00,
2013-01-03 19:19:00,74.6,68.7,30.11,South,172,5.0,5.0,82,0.00,,,0.03,Wunderground v.1.15,2013-01-04 00:19:00,
2013-01-03 19:29:00,74.5,68.6,30.11,SSW,193,5.0,5.0,82,0.00,,,0.03,Wunderground v.1.15,2013-01-04 00:29:00,
2013-01-03 19:38:00,74.5,69.0,30.11,SSE,162,4.0,4.0,83,0.00,,,0.03,Wunderground v.1.15,2013-01-04 00:38:00,
2013-01-03 19:49:00,74.5,69.0,30.12,SSE,153,4.0,4.0,83,0.00,,,0.03,Wunderground v.1.15,2013-01-04 00:49:00,
2013-01-03 19:59:00,74.4,68.9,30.13,SSW,208,3.0,3.0,83,0.00,,,0.03,Wunderground v.1.15,2013-01-04 00:59:00,
2013-01-03 20:08:00,74.0,68.5,30.13,SSW,212,2.0,3.0,83,0.00,,,0.03,Wunderground v.1.15,2013-01-04 01:08:00,
2013-01-03 20:19:00,73.7,68.2,30.13,SSE,150,1.0,1.0,83,0.00,,,0.03,Wunderground v.1.15,2013-01-04 01:19:00,
2013-01-03 20:29:00,73.5,68.4,30.13,South,188,2.0,3.0,84,0.00,,,0.03,Wunderground v.1.15,2013-01-04 01:29:00,
2013-01-03 20:38:00,73.5,68.4,30.13,SE,146,2.0,3.0,84,0.00,,,0.03,Wunderground v.1.15,2013-01-04 01:38:00,
2013-01-03 20:49:00,73.6,68.5,30.14,SE,143,2.0,2.0,84,0.00,,,0.03,Wunderground v.1.15,2013-01-04 01:49:00,
2013-01-03 20:59:00,73.9,69.1,30.14,South,184,3.0,4.0,85,0.00,,,0.03,Wunderground v.1.15,2013-01-04 01:59:00,
2013-01-03 21:08:00,74.0,69.2,30.14,SSW,211,3.0,3.0,85,0.00,,,0.03,Wunderground v.1.15,2013-01-04 02:08:00,
2013-01-03 21:19:00,73.8,69.0,30.14,SE,146,3.0,3.0,85,0.00,,,0.03,Wunderground v.1.15,2013-01-04 02:19:00,
2013-01-03 21:29:00,73.3,68.9,30.14,South,183,2.0,2.0,86,0.00,,,0.03,Wunderground v.1.15,2013-01-04 02:29:00,
2013-01-03 21:38:00,73.0,68.6,30.14,South,181,2.0,5.0,86,0.00,,,0.03,Wunderground v.1.15,2013-01-04 02:38:00,
2013-01-03 21:48:00,72.9,68.8,30.14,South,191,3.0,5.0,87,0.00,,,0.03,Wunderground v.1.15,2013-01-04 02:48:00,
2013-01-03 21:59:00,72.7,68.6,30.14,SSW,211,2.0,2.0,87,0.00,,,0.03,Wunderground v.1.15,2013-01-04 02:59:00,
2013-01-03 22:08:00,72.5,68.4,30.14,SSW,194,1.0,2.0,87,0.00,,,0.03,Wunderground v.1.15,2013-01-04 03:08:00,
2013-01-03 22:18:00,72.4,68.3,30.14,SSW,208,2.0,2.0,87,0.00,,,0.03,Wunderground v.1.15,2013-01-04 03:18:00,
2013-01-03 22:29:00,72.3,68.5,30.14,SSW,208,1.0,1.0,88,0.00,,,0.03,Wunderground v.1.15,2013-01-04 03:29:00,
2013-01-03 22:39:00,72.1,68.3,30.14,WSW,240,1.0,1.0,88,0.00,,,0.03,Wunderground v.1.15,2013-01-04 03:39:00,
2013-01-03 22:48:00,71.6,67.9,30.14,WSW,243,1.0,1.0,88,0.00,,,0.03,Wunderground v.1.15,2013-01-04 03:48:00,
2013-01-03 22:59:00,71.0,67.6,30.14,West,260,0.0,0.0,89,0.00,,,0.03,Wunderground v.1.15,2013-01-04 03:59:00,
2013-01-03 23:09:00,70.5,67.4,30.15,West,274,0.0,2.0,90,0.00,,,0.03,Wunderground v.1.15,2013-01-04 04:09:00,
2013-01-03 23:18:00,70.2,67.1,30.14,West,276,0.0,1.0,90,0.00,,,0.03,Wunderground v.1.15,2013-01-04 04:18:00,
2013-01-03 23:28:00,70.0,67.3,30.15,West,280,1.0,1.0,91,0.00,,,0.03,Wunderground v.1.15,2013-01-04 04:28:00,
2013-01-03 23:39:00,69.9,67.2,30.15,West,266,0.0,0.0,91,0.00,,,0.03,Wunderground v.1.15,2013-01-04 04:39:00,
2013-01-03 23:48:00,69.4,66.7,30.14,West,266,0.0,0.0,91,0.00,,,0.03,Wunderground v.1.15,2013-01-04 04:48:00,
2013-01-03 23:59:00,69.4,67.0,30.14,SSE,166,0.0,0.0,92,0.00,,,0.00,Wunderground v.1.15,2013-01-04 04:59:00,